createdAt,value
2022-12-29T00:01:22.389Z,99850.74
2022-12-29T00:06:27.727Z,99841.16
2022-12-29T00:11:31.916Z,99836.77
2022-12-29T00:16:41.112Z,99838.52
2022-12-29T00:22:13.152Z,99845.09
2022-12-29T00:27:43.806Z,99841.19
2022-12-29T00:33:09.566Z,99839.13
2022-12-29T00:38:33.391Z,99832.52
2022-12-29T00:43:55.610Z,99833.05
2022-12-29T00:49:18.871Z,99831.66
2022-12-29T00:54:22.661Z,99831.85
2022-12-29T00:59:26.839Z,99826.20
2022-12-29T01:04:30.455Z,99825.83
2022-12-29T01:09:52.451Z,99827.19
2022-12-29T01:14:55.840Z,99824.85
2022-12-29T01:20:00.179Z,99820.34
2022-12-29T01:25:05.959Z,99815.12
2022-12-29T01:30:12.647Z,99805.61
2022-12-29T01:35:17.699Z,99792.63
2022-12-29T01:40:22.355Z,99786.92
2022-12-29T01:45:26.432Z,99783.08
2022-12-29T01:50:35.125Z,99778.41
2022-12-29T01:55:48.232Z,99774.73
2022-12-29T02:00:52.104Z,99770.58
2022-12-29T02:06:08.341Z,99765.89
2022-12-29T02:11:18.048Z,99768.42
2022-12-29T02:16:38.513Z,99768.84
2022-12-29T02:21:46.267Z,99771.41
2022-12-29T02:27:34.254Z,99767.45
2022-12-29T02:33:03.484Z,99761.61
2022-12-29T02:38:25.816Z,99757.86
2022-12-29T02:43:46.788Z,99754.28
2022-12-29T02:49:44.447Z,99739.67
2022-12-29T02:54:52.264Z,99740.67
2022-12-29T03:00:17.333Z,99753.59
2022-12-29T03:05:42.004Z,99755.52
2022-12-29T03:10:56.400Z,99744.75
2022-12-29T03:16:12.532Z,99748.80
2022-12-29T03:21:49.172Z,99751.81
2022-12-29T03:26:56.321Z,99738.77
2022-12-29T03:32:03.214Z,99734.88
2022-12-29T03:37:21.103Z,99742.20
2022-12-29T03:42:32.671Z,99738.58
2022-12-29T03:47:35.969Z,99716.16
2022-12-29T03:52:42.005Z,99702.48
2022-12-29T03:57:47.158Z,99693.80
2022-12-29T04:02:50.841Z,99710.33
2022-12-29T04:07:54.590Z,99716.86
2022-12-29T04:12:58.920Z,99714.34
2022-12-29T04:18:02.292Z,99709.58
2022-12-29T04:23:07.735Z,99697.66
2022-12-29T04:28:11.056Z,99689.76
2022-12-29T04:33:15.669Z,99674.66
2022-12-29T04:38:19.928Z,99671.55
2022-12-29T04:43:24.095Z,99677.93
2022-12-29T04:48:27.801Z,99680.73
2022-12-29T04:53:31.303Z,99684.92
2022-12-29T04:58:38.489Z,99684.13
2022-12-29T05:03:44.597Z,99682.11
2022-12-29T05:08:54.819Z,99676.13
2022-12-29T05:14:01.545Z,99674.61
2022-12-29T05:19:04.859Z,99670.54
2022-12-29T05:24:09.047Z,99661.63
2022-12-29T05:29:12.483Z,99655.45
2022-12-29T05:34:15.983Z,99650.70
2022-12-29T05:39:19.721Z,99637.84
2022-12-29T05:44:23.338Z,99631.86
2022-12-29T05:49:26.835Z,99632.98
2022-12-29T05:54:30.110Z,99636.67
2022-12-29T05:59:33.470Z,99636.15
2022-12-29T06:04:36.810Z,99630.90
2022-12-29T06:09:40.213Z,99631.36
2022-12-29T06:14:43.834Z,99619.89
2022-12-29T06:19:48.218Z,99616.14
2022-12-29T06:24:51.588Z,99624.77
2022-12-29T06:29:54.892Z,99608.65
2022-12-29T06:34:58.151Z,99604.41
2022-12-29T06:40:01.442Z,99591.67
2022-12-29T06:45:05.481Z,99581.94
2022-12-29T06:50:09.221Z,99588.09
2022-12-29T06:55:12.935Z,99587.88
2022-12-29T07:00:22.335Z,99587.02
2022-12-29T07:05:28.918Z,99594.20
2022-12-29T07:10:32.297Z,99598.63
2022-12-29T07:15:38.327Z,99600.02
2022-12-29T07:20:41.626Z,99595.02
2022-12-29T07:25:44.929Z,99595.53
2022-12-29T07:30:48.199Z,99595.92
2022-12-29T07:35:52.107Z,99602.30
2022-12-29T07:40:59.659Z,99597.48
2022-12-29T07:46:02.985Z,99589.78
2022-12-29T07:51:06.820Z,99576.71
2022-12-29T07:56:10.143Z,99587.58
2022-12-29T08:01:13.456Z,99604.24
2022-12-29T08:06:16.766Z,99619.20
2022-12-29T08:11:20.307Z,99623.31
2022-12-29T08:16:23.687Z,99616.05
2022-12-29T08:21:28.955Z,99614.80
2022-12-29T08:26:32.240Z,99603.31
2022-12-29T08:31:36.046Z,99603.36
2022-12-29T08:36:42.179Z,99614.90
2022-12-29T08:41:45.524Z,99613.05
2022-12-29T08:46:48.884Z,99608.66
2022-12-29T08:51:52.148Z,99603.42
2022-12-29T08:56:55.529Z,99612.64
2022-12-29T09:01:59.130Z,99608.56
2022-12-29T09:07:02.850Z,99609.63
2022-12-29T09:12:06.639Z,99600.81
2022-12-29T09:17:29.254Z,99585.02
2022-12-29T09:22:32.598Z,99584.15
2022-12-29T09:27:37.130Z,99584.83
2022-12-29T09:32:44.868Z,99591.67
2022-12-29T09:37:49.173Z,99593.44
2022-12-29T09:43:05.394Z,99593.13
2022-12-29T09:48:19.968Z,99586.87
2022-12-29T09:53:30.655Z,99569.58
2022-12-29T09:58:46.282Z,99563.84
2022-12-29T10:03:56.902Z,99557.16
2022-12-29T10:09:23.829Z,99557.26
2022-12-29T10:14:41.086Z,99559.25
2022-12-29T10:19:50.244Z,99559.75
2022-12-29T10:25:03.949Z,99543.23
2022-12-29T10:30:14.271Z,99535.52
2022-12-29T10:35:24.371Z,99533.95
2022-12-29T10:40:43.975Z,99520.19
2022-12-29T10:45:49.261Z,99524.34
2022-12-29T10:51:01.739Z,99522.72
2022-12-29T10:56:18.726Z,99521.39
2022-12-29T11:01:23.941Z,99513.05
2022-12-29T11:06:30.509Z,99511.05
2022-12-29T11:11:36.849Z,99508.29
2022-12-29T11:16:42.995Z,99517.39
2022-12-29T11:21:46.995Z,99522.64
2022-12-29T11:27:00.057Z,99523.73
2022-12-29T11:32:25.981Z,99520.70
2022-12-29T11:37:40.980Z,99509.56
2022-12-29T11:42:55.159Z,99502.17
2022-12-29T11:48:00.499Z,99502.04
2022-12-29T11:53:26.784Z,99501.30
2022-12-29T11:58:37.904Z,99506.41
2022-12-29T12:03:50.157Z,99509.70
2022-12-29T12:09:00.928Z,99504.87
2022-12-29T12:14:26.933Z,99504.19
2022-12-29T12:19:39.578Z,99496.36
2022-12-29T12:24:55.872Z,99483.30
2022-12-29T12:30:09.391Z,99470.45
2022-12-29T12:35:21.363Z,99466.29
2022-12-29T12:40:40.655Z,99476.42
2022-12-29T12:45:47.164Z,99477.84
2022-12-29T12:51:01.421Z,99479.52
2022-12-29T12:56:17.230Z,99480.79
2022-12-29T13:01:39.447Z,99479.25
2022-12-29T13:07:16.871Z,99484.61
2022-12-29T13:12:41.843Z,99488.89
2022-12-29T13:18:08.634Z,99495.33
2022-12-29T13:23:28.314Z,99496.63
2022-12-29T13:28:40.287Z,99494.14
2022-12-29T13:33:51.052Z,99489.01
2022-12-29T13:39:41.911Z,99485.12
2022-12-29T13:44:57.503Z,99489.55
2022-12-29T13:50:04.871Z,99494.70
2022-12-29T13:55:39.390Z,99492.95
2022-12-29T14:01:30.060Z,99489.49
2022-12-29T14:06:41.947Z,99487.48
2022-12-29T14:11:45.940Z,99480.64
2022-12-29T14:16:50.272Z,99476.21
2022-12-29T14:22:01.034Z,99487.83
2022-12-29T14:27:10.988Z,99489.61
2022-12-29T14:32:27.181Z,99492.11
2022-12-29T14:37:33.050Z,99495.82
2022-12-29T14:42:36.765Z,99497.77
2022-12-29T14:47:51.870Z,99493.64
2022-12-29T14:53:03.738Z,99494.38
2022-12-29T14:58:23.665Z,99492.50
2022-12-29T15:03:39.491Z,99494.45
2022-12-29T15:08:58.291Z,99494.98
2022-12-29T15:14:01.713Z,99498.45
2022-12-29T15:19:06.520Z,99497.59
2022-12-29T15:24:12.389Z,99499.86
2022-12-29T15:29:36.063Z,99497.98
2022-12-29T15:34:39.700Z,99492.66
2022-12-29T15:39:43.397Z,99501.45
2022-12-29T15:44:54.201Z,99505.55
2022-12-29T15:50:24.130Z,99497.92
2022-12-29T15:55:38.423Z,99491.57
2022-12-29T16:00:49.490Z,99488.97
2022-12-29T16:05:57.123Z,99489.22
2022-12-29T16:11:18.523Z,99491.83
2022-12-29T16:16:31.671Z,99497.70
2022-12-29T16:21:37.414Z,99497.55
2022-12-29T16:26:46.784Z,99503.16
2022-12-29T16:31:50.265Z,99505.70
2022-12-29T16:36:59.739Z,99499.69
2022-12-29T16:42:45.616Z,99500.08
2022-12-29T16:48:07.910Z,99497.52
2022-12-29T16:53:40.685Z,99505.50
2022-12-29T16:58:50.432Z,99506.71
2022-12-29T17:03:58.923Z,99510.25
2022-12-29T17:09:03.538Z,99516.93
2022-12-29T17:14:19.181Z,99523.23
2022-12-29T17:19:31.215Z,99521.20
2022-12-29T17:24:34.877Z,99519.54
2022-12-29T17:29:42.742Z,99517.84
2022-12-29T17:34:46.197Z,99509.55
2022-12-29T17:39:50.669Z,99516.66
2022-12-29T17:44:54.353Z,99520.31
2022-12-29T17:49:58.073Z,99511.39
2022-12-29T17:55:02.802Z,99516.11
2022-12-29T18:00:07.060Z,99515.47
2022-12-29T18:05:29.556Z,99512.06
2022-12-29T18:10:33.378Z,99517.98
2022-12-29T18:15:37.675Z,99530.30
2022-12-29T18:20:43.896Z,99540.31
2022-12-29T18:25:56.137Z,99544.73
2022-12-29T18:31:03.039Z,99548.95
2022-12-29T18:36:07.174Z,99553.20
2022-12-29T18:41:20.871Z,99562.39
2022-12-29T18:46:24.741Z,99566.42
2022-12-29T18:51:28.357Z,99570.88
2022-12-29T18:56:32.996Z,99568.27
2022-12-29T19:01:36.453Z,99569.84
2022-12-29T19:06:40.089Z,99578.30
2022-12-29T19:11:44.184Z,99586.74
2022-12-29T19:16:48.918Z,99572.67
2022-12-29T19:21:56.866Z,99561.29
2022-12-29T19:27:00.611Z,99564.74
2022-12-29T19:32:04.512Z,99569.27
2022-12-29T19:37:08.162Z,99574.69
2022-12-29T19:42:11.841Z,99574.65
2022-12-29T19:47:20.702Z,99573.61
2022-12-29T19:52:26.420Z,99570.39
2022-12-29T19:57:31.613Z,99575.27
2022-12-29T20:02:36.980Z,99579.94
2022-12-29T20:07:40.721Z,99579.44
2022-12-29T20:12:44.939Z,99588.80
2022-12-29T20:23:12.302Z,99584.57
2022-12-29T20:28:16.807Z,99595.73
2022-12-29T20:33:20.743Z,99602.80
2022-12-29T20:38:27.388Z,99600.73
2022-12-29T20:43:34.561Z,99599.92
2022-12-29T20:48:43.423Z,99588.52
2022-12-29T20:53:47.577Z,99587.42
2022-12-29T20:59:25.867Z,99583.84
2022-12-29T21:04:16.341Z,99584.41
2022-12-29T21:09:20.740Z,99583.80
2022-12-29T21:14:25.087Z,99585.43
2022-12-29T21:19:29.076Z,99592.11
2022-12-29T21:24:32.932Z,99597.73
2022-12-29T21:29:37.221Z,99602.30
2022-12-29T21:34:41.438Z,99603.77
2022-12-29T21:39:45.123Z,99605.16
2022-12-29T21:45:07.944Z,99602.34
2022-12-29T21:50:11.763Z,99604.89
2022-12-29T21:55:15.542Z,99602.30
2022-12-29T22:00:37.783Z,99602.15
2022-12-29T22:06:02.980Z,99594.64
2022-12-29T22:11:27.314Z,99589.73
2022-12-29T22:16:30.990Z,99596.05
2022-12-29T22:21:34.599Z,99606.08
2022-12-29T22:26:37.978Z,99615.61
2022-12-29T22:31:41.513Z,99612.09
2022-12-29T22:36:44.840Z,99619.88
2022-12-29T22:41:48.623Z,99625.86
2022-12-29T22:46:54.114Z,99621.48
2022-12-29T22:51:57.902Z,99628.62
2022-12-29T22:57:02.388Z,99630.80
2022-12-29T23:02:06.003Z,99634.29
2022-12-29T23:07:09.618Z,99641.44
2022-12-29T23:12:13.332Z,99644.40
2022-12-29T23:17:16.993Z,99652.84
2022-12-29T23:22:21.325Z,99657.48
2022-12-29T23:27:24.671Z,99658.05
2022-12-29T23:32:28.078Z,99656.66
2022-12-29T23:37:32.049Z,99652.16
2022-12-29T23:42:35.816Z,99652.39
2022-12-29T23:47:39.257Z,99653.02
2022-12-29T23:52:42.849Z,99656.55
2022-12-29T23:57:47.262Z,99662.52
